Предлагаем Вашему вниманию английскую версию страницы: AUTOTAF.ME 15525 - aviation weather forecast Lovetch

AUTOTAF 15525 - авиапрогноз Lovetch

Сегодня рассвет 04:21 UTC, восход солнца 04:50 UTC,
местный полдень 10:04 UTC, заход солнца 15:19 UTC,
наступление темноты 15:48 UTC.

Краткий прогноз 15525 на 9 часов

AUTOTAF.ME 15525 270800Z 2709/2718 VRB02MPS CAVOK

Детальный прогноз 15525 на 24 часа

AUTOTAF.ME 15525 270800Z 2709/2809 VRB02MPS 9999 SKC TX19/2712Z TN09/2803Z       
  BECMG 2801/2803 SCT042   
  BECMG 2807/2809 SKC

Подробный табличный прогноз

Время (UTC) miniAUTOTAF на 3 ч WX FZLVL
M AGL
ICE TURB Т
(°С)
Тd
(°С)
f(%) QNH
(гПа)
WIND/T
06 VRB02MPS 9999 SKC 3300 11 6 71 1014 ...
09 VRB02MPS 9999 SKC 3300 MOD FL40/FL50 18 6 47 1014 ...
12 03003MPS 9999 SKC 3300 MOD FL40/FL50 19 7 46 1012 ...
15 VRB02MPS 9999 FEW300 3000 14 8 68 1012 ...
18 VRB02MPS 9999 SCT270 3000 12 7 74 1013 ...
21 VRB02MPS 9999 FEW220 2850 11 6 72 1014 ...
28.10.2020
00 VRB02MPS 9999 FEW220 2700 10 5 73 1014 ...
03 VRB02MPS 9999 SCT042 2700 9 6 76 1014 ...
06 VRB02MPS 9999 SCT042 2700 11 6 74 1015 ...
09 VRB02MPS 9999 SKC 2550 16 8 60 1015 ...
12 VRB02MPS 9999 BKN026 2550 MOD FL40/FL50 16 9 63 1014 ...
15 VRB02MPS 9999 BKN026 2550 MOD FL40/FL50 13 9 77 1014 ...
18 VRB02MPS 9999 BKN019 2400 11 8 86 1015 ...
21 VRB02MPS 5000 BR BKN011 BR 2400 MOD FL90/FL100 10 8 89 1016 ...
29.10.2020
00 VRB02MPS 9999 BKN011 2550 11 8 86 1015 ...
03 VRB02MPS 2000 BR BKN005 BR 2400 FBL FL90/FL110 9 8 93 1016 ...


Широта 43.1°, долгота 24.7°, высота 221 м абс.
Средняя высота рельефа местности 591 м абс.
Прогнозы обновляются четыре раза в сутки: в 02, 08, 14, 20 ч всемирного времени.


Выбрать прогноз по другой модели Lovetch
Онлайн-сводка гроз по Lovetch (для РФ и ближнего зарубежья)
Карта фактических гроз в окрестностях Lovetch
Динамические прогностические карты (ventusky.com)
Прогностическая карта высоты нижней границы облаков по Lovetch (windy.com)
Выбрать другой город

Прогноз предназначен для личного научно-познавательного использования частными лицами
и не предназначен для принятия важных решений и выполнения реальных полётов воздушных судов

При копировании или ином использовании любых материалов данного сайта ссылка на © meteocenter.asia обязательна.

1.07/1.5